Time;durP1;ratioP1;P1;durP2;ratioP2;P2;SDS_P1;SDS_P2;PMS_P1;PMS_P2;Temp;Humidity;BMP_temperature;BMP_pressure;BME280_temperature;BME280_humidity;BME280_pressure;Samples;Min_cycle;Max_cycle;Signal;HPM_P1;HPM_P2
2023/12/05 00:01:19;;;;;;;10.87;6.10;;;;;;;3.12;100.00;63247.78;5053348;28;20199;-54
2023/12/05 00:03:45;;;;;;;11.60;7.13;;;;;;;3.26;100.00;63260.50;5053742;28;20722;-53
2023/12/05 00:06:11;;;;;;;13.17;7.30;;;;;;;3.26;100.00;63263.53;5053271;28;20703;-52
2023/12/05 00:08:37;;;;;;;11.30;6.47;;;;;;;3.34;100.00;63269.19;5035477;28;20275;-53
2023/12/05 00:11:07;;;;;;;13.43;7.37;;;;;;;3.27;100.00;63267.09;5035579;28;20200;-56
2023/12/05 00:13:33;;;;;;;12.03;7.50;;;;;;;3.22;100.00;63256.72;5053703;28;20697;-53
2023/12/05 00:15:59;;;;;;;11.47;6.43;;;;;;;3.25;100.00;63261.91;5053290;28;20195;-53
2023/12/05 00:18:25;;;;;;;9.67;6.37;;;;;;;3.22;100.00;63259.19;5053446;28;20208;-54
2023/12/05 00:20:51;;;;;;;11.50;6.03;;;;;;;3.37;100.00;63275.47;5053231;28;20189;-52
2023/12/05 00:23:16;;;;;;;8.97;5.73;;;;;;;3.22;100.00;63261.13;5052395;28;20217;-57
2023/12/05 00:25:43;;;;;;;7.40;4.80;;;;;;;3.13;100.00;63246.91;5053560;28;20285;-54
2023/12/05 00:28:08;;;;;;;7.23;5.20;;;;;;;3.13;100.00;63248.88;5053244;28;20230;-52
2023/12/05 00:30:34;;;;;;;5.43;4.50;;;;;;;3.04;100.00;63236.59;5053443;28;20198;-54
2023/12/05 00:32:59;;;;;;;7.50;5.20;;;;;;;3.10;100.00;63240.63;5053169;28;20340;-53
2023/12/05 00:35:25;;;;;;;6.30;4.57;;;;;;;3.21;100.00;63255.59;5035031;28;20636;-53
2023/12/05 00:37:50;;;;;;;5.70;4.17;;;;;;;3.26;100.00;63263.53;5053103;28;20296;-53
2023/12/05 00:40:16;;;;;;;6.83;4.30;;;;;;;3.18;100.00;63254.84;5052839;28;20676;-53
2023/12/05 00:42:42;;;;;;;6.10;4.40;;;;;;;3.11;100.00;63244.22;5052379;28;20225;-53
2023/12/05 00:45:09;;;;;;;5.33;3.60;;;;;;;3.10;100.00;63245.63;5052637;28;20205;-52
2023/12/05 00:47:35;;;;;;;6.67;4.27;;;;;;;3.00;100.00;63234.75;5034828;28;20252;-55
2023/12/05 00:50:00;;;;;;;6.60;4.33;;;;;;;3.00;100.00;63234.75;5053004;28;20225;-52
2023/12/05 00:52:26;;;;;;;8.73;4.37;;;;;;;3.11;100.00;63244.75;5053014;28;20209;-54
2023/12/05 00:54:51;;;;;;;5.57;3.77;;;;;;;3.08;100.00;63244.00;5052567;28;20280;-52
2023/12/05 00:57:17;;;;;;;5.00;4.00;;;;;;;2.94;100.00;63228.78;5052717;28;20396;-53
2023/12/05 00:59:42;;;;;;;5.87;4.37;;;;;;;3.03;100.00;63236.06;5052556;28;20624;-53
2023/12/05 01:02:09;;;;;;;5.73;3.63;;;;;;;2.96;100.00;63233.44;5034670;28;20229;-53
2023/12/05 01:04:35;;;;;;;4.87;3.73;;;;;;;2.91;100.00;63225.53;5052597;28;20232;-53
2023/12/05 01:07:00;;;;;;;5.17;4.07;;;;;;;2.99;100.00;63234.22;5052199;28;20704;-53
2023/12/05 01:09:26;;;;;;;5.90;3.77;;;;;;;3.04;100.00;63239.66;5052455;28;20231;-54
2023/12/05 01:11:51;;;;;;;9.10;3.73;;;;;;;3.05;100.00;63237.72;5052217;28;20222;-54
2023/12/05 01:14:17;;;;;;;5.50;3.60;;;;;;;3.30;100.00;63267.34;5034686;28;20708;-54
2023/12/05 01:16:45;;;;;;;8.33;4.70;;;;;;;3.34;100.00;63271.69;5052328;28;20213;-53
2023/12/05 01:19:11;;;;;;;6.03;4.17;;;;;;;3.32;100.00;63270.06;5052162;28;20212;-52
2023/12/05 01:21:44;;;;;;;5.67;4.03;;;;;;;3.31;100.00;63268.97;5034310;28;20298;-54
2023/12/05 01:24:09;;;;;;;7.27;4.03;;;;;;;3.44;100.00;63282.53;5052550;28;20210;-55
2023/12/05 01:26:35;;;;;;;6.23;4.13;;;;;;;3.22;100.00;63261.69;5052400;28;20701;-54
2023/12/05 01:29:02;;;;;;;6.47;3.97;;;;;;;3.06;100.00;63238.78;5052014;28;20208;-55
2023/12/05 01:31:28;;;;;;;9.57;3.57;;;;;;;2.99;100.00;63231.19;5052334;28;20218;-52
2023/12/05 01:33:53;;;;;;;5.20;3.87;;;;;;;3.23;100.00;63254.75;5034169;28;20178;-55
2023/12/05 01:36:19;;;;;;;6.30;3.97;;;;;;;3.20;100.00;63257.03;5033605;28;20275;-54
2023/12/05 01:38:44;;;;;;;6.70;4.13;;;;;;;3.18;100.00;63254.31;5052115;28;20597;-54
2023/12/05 01:41:10;;;;;;;5.60;3.97;;;;;;;3.15;100.00;63251.59;5051736;28;20213;-54
2023/12/05 01:43:35;;;;;;;6.10;4.00;;;;;;;3.09;100.00;63245.06;5051875;28;20219;-53
2023/12/05 01:46:02;;;;;;;6.90;4.03;;;;;;;3.05;100.00;63240.19;5051971;28;20208;-53
2023/12/05 01:48:30;;;;;;;8.77;3.90;;;;;;;3.02;100.00;63237.47;5051724;28;20279;-55
2023/12/05 01:50:56;;;;;;;4.47;3.53;;;;;;;3.07;100.00;63242.91;5051664;28;20309;-54
2023/12/05 01:53:22;;;;;;;6.27;3.97;;;;;;;3.04;100.00;63234.13;5033843;28;20762;-55
2023/12/05 01:55:50;;;;;;;5.13;3.33;;;;;;;3.02;100.00;63235.00;5051676;28;20207;-54
2023/12/05 01:58:16;;;;;;;8.33;3.90;;;;;;;3.11;100.00;63246.72;5051863;28;20252;-55
2023/12/05 02:00:43;;;;;;;6.60;4.33;;;;;;;3.21;100.00;63257.56;5052317;28;20226;-54
2023/12/05 02:03:09;;;;;;;9.63;4.60;;;;;;;3.16;100.00;63252.69;5033787;28;20315;-53
2023/12/05 02:05:36;;;;;;;7.13;4.23;;;;;;;3.31;100.00;63271.44;5051471;28;20210;-52
2023/12/05 02:08:01;;;;;;;6.37;4.17;;;;;;;3.35;100.00;63272.78;5051478;28;20213;-53
2023/12/05 02:10:27;;;;;;;5.47;3.87;;;;;;;3.32;100.00;63267.56;5051683;28;20205;-51
2023/12/05 02:12:52;;;;;;;8.67;4.53;;;;;;;3.43;100.00;63279.50;5050091;28;20298;-53
2023/12/05 02:15:18;;;;;;;7.33;4.50;;;;;;;3.37;100.00;63275.47;5051749;28;20769;-52
2023/12/05 02:18:16;;;;;;;6.67;4.20;;;;;;;3.29;100.00;63264.31;5051419;28;20233;-52
2023/12/05 02:20:53;;;;;;;7.87;4.27;;;;;;;3.21;100.00;63255.59;5051321;28;20209;-53
2023/12/05 02:23:39;;;;;;;6.97;4.30;;;;;;;3.46;100.00;63284.72;5051313;28;20704;-53
2023/12/05 02:26:20;;;;;;;7.27;4.50;;;;;;;3.34;100.00;63272.22;5051122;28;20762;-54
2023/12/05 02:28:45;;;;;;;8.60;4.83;;;;;;;3.33;100.00;63271.13;5051652;28;20215;-53
2023/12/05 02:31:11;;;;;;;7.50;4.67;;;;;;;3.35;100.00;63270.28;5051362;28;20673;-53
2023/12/05 02:33:38;;;;;;;9.40;4.73;;;;;;;3.48;100.00;63286.88;5051601;28;20684;-53
2023/12/05 02:36:20;;;;;;;8.07;4.83;;;;;;;3.77;100.00;63315.91;5051034;28;20285;-55
2023/12/05 02:38:59;;;;;;;11.47;4.80;;;;;;;3.53;100.00;63291.78;5051492;28;20253;-55
2023/12/05 02:41:30;;;;;;;8.03;4.50;;;;;;;3.47;100.00;63283.31;5050776;28;20562;-56
2023/12/05 02:44:15;;;;;;;8.10;4.93;;;;;;;3.66;100.00;63305.91;5051222;28;20237;-54
2023/12/05 02:46:42;;;;;;;8.07;4.53;;;;;;;3.79;100.00;63322.53;5050140;28;20270;-53
2023/12/05 02:49:09;;;;;;;6.67;3.80;;;;;;;3.79;100.00;63320.03;5050785;28;20293;-52
2023/12/05 02:51:35;;;;;;;7.73;5.00;;;;;;;3.66;100.00;63305.91;5051084;28;20284;-53
2023/12/05 02:54:03;;;;;;;6.47;4.53;;;;;;;3.39;100.00;63277.66;5050803;28;20230;-53
2023/12/05 02:56:29;;;;;;;7.40;4.27;;;;;;;3.16;100.00;63252.13;5032780;28;20201;-54
2023/12/05 02:58:55;;;;;;;7.30;5.03;;;;;;;3.15;100.00;63251.59;5033087;28;20209;-54
2023/12/05 03:01:20;;;;;;;6.33;4.33;;;;;;;3.04;100.00;63239.09;5051039;28;20197;-52
2023/12/05 03:03:46;;;;;;;6.60;4.37;;;;;;;3.09;100.00;63242.56;5032990;28;20703;-53
2023/12/05 03:06:12;;;;;;;6.43;4.50;;;;;;;3.17;100.00;63250.75;5050893;28;20181;-53
2023/12/05 03:08:37;;;;;;;8.17;5.43;;;;;;;3.13;100.00;63246.91;5050913;28;20236;-53
2023/12/05 03:11:03;;;;;;;8.90;5.13;;;;;;;3.04;100.00;63237.16;5050715;28;20314;-62
2023/12/05 03:13:28;;;;;;;10.20;4.93;;;;;;;3.06;100.00;63239.34;5050614;28;20220;-56
2023/12/05 03:15:54;;;;;;;9.77;4.67;;;;;;;2.94;100.00;63228.78;5050552;28;20227;-53
2023/12/05 03:18:19;;;;;;;11.77;5.60;;;;;;;3.10;100.00;63246.16;5032792;28;20212;-53
2023/12/05 03:20:45;;;;;;;7.47;5.00;;;;;;;3.10;100.00;63241.19;5050383;28;20252;-53
2023/12/05 03:23:11;;;;;;;11.40;6.47;;;;;;;3.24;100.00;63258.88;5050051;28;20234;-52
2023/12/05 03:25:36;;;;;;;8.70;5.70;;;;;;;3.23;100.00;63257.78;5050883;28;20548;-53
2023/12/05 03:28:02;;;;;;;10.20;5.67;;;;;;;3.40;100.00;63278.75;5050905;28;20209;-53
2023/12/05 03:30:27;;;;;;;11.23;5.10;;;;;;;3.44;100.00;63280.06;5050352;28;20281;-52
2023/12/05 03:32:53;;;;;;;10.70;6.50;;;;;;;3.10;100.00;63246.16;5050546;28;20321;-51
2023/12/05 03:35:18;;;;;;;9.80;5.83;;;;;;;3.09;100.00;63242.06;5050654;28;20210;-53
2023/12/05 03:37:44;;;;;;;8.73;5.40;;;;;;;3.18;100.00;63251.81;5050410;28;20272;-53
2023/12/05 03:40:10;;;;;;;6.87;4.70;;;;;;;2.80;100.00;63211.09;5050093;28;20204;-52
2023/12/05 03:42:35;;;;;;;6.33;4.67;;;;;;;2.92;100.00;63223.59;5050187;28;20280;-54
2023/12/05 03:45:01;;;;;;;7.37;4.40;;;;;;;3.11;100.00;63244.75;5050278;28;20203;-54
2023/12/05 03:47:26;;;;;;;5.73;4.07;;;;;;;3.06;100.00;63241.81;5050184;28;20206;-54
2023/12/05 03:49:52;;;;;;;6.40;4.70;;;;;;;3.18;100.00;63254.84;5049923;28;20303;-52
2023/12/05 03:52:18;;;;;;;6.53;4.07;;;;;;;3.18;100.00;63254.84;5050278;28;20250;-51
2023/12/05 03:54:43;;;;;;;6.77;3.83;;;;;;;3.26;100.00;63261.06;5049881;28;20250;-51
2023/12/05 03:57:09;;;;;;;7.13;3.97;;;;;;;3.36;100.00;63274.41;5049823;28;20247;-52
2023/12/05 03:59:34;;;;;;;7.03;4.47;;;;;;;3.37;100.00;63274.94;5052905;28;20238;-51
2023/12/05 04:02:00;;;;;;;6.50;3.97;;;;;;;3.33;100.00;63271.13;5053193;28;20629;-55
2023/12/05 04:04:25;;;;;;;7.37;4.50;;;;;;;3.32;100.00;63270.06;5054108;28;20196;-53
2023/12/05 04:06:51;;;;;;;5.63;3.80;;;;;;;3.42;100.00;63278.44;5053569;28;20227;-54
2023/12/05 04:09:17;;;;;;;6.47;4.17;;;;;;;3.41;100.00;63279.28;5053339;28;20303;-55
2023/12/05 04:11:43;;;;;;;7.87;4.23;;;;;;;3.28;100.00;63265.72;5053156;28;20290;-54
2023/12/05 04:14:08;;;;;;;7.23;4.10;;;;;;;3.06;100.00;63238.78;5053311;28;20261;-53
2023/12/05 04:16:35;;;;;;;6.57;4.27;;;;;;;3.02;100.00;63232.50;5052770;28;20210;-53
2023/12/05 04:19:00;;;;;;;5.20;3.70;;;;;;;3.26;100.00;63263.53;5053286;28;20240;-52
2023/12/05 04:21:26;;;;;;;6.80;4.00;;;;;;;2.95;100.00;63229.88;5052828;28;20198;-53
2023/12/05 04:23:52;;;;;;;8.70;4.43;;;;;;;2.84;100.00;63217.38;5051681;28;20213;-52
2023/12/05 04:26:19;;;;;;;6.77;4.47;;;;;;;2.74;100.00;63207.06;5052808;28;20231;-54
2023/12/05 04:28:46;;;;;;;5.80;3.87;;;;;;;3.19;100.00;63253.44;5035034;28;20686;-53
2023/12/05 04:31:12;;;;;;;7.00;4.73;;;;;;;3.09;100.00;63244.53;5034657;28;20201;-53
2023/12/05 04:33:42;;;;;;;8.50;4.30;;;;;;;3.09;100.00;63242.56;5052237;28;20218;-53
2023/12/05 04:36:08;;;;;;;5.93;4.10;;;;;;;3.21;100.00;63258.09;5052821;28;20243;-55
2023/12/05 04:38:36;;;;;;;11.47;4.63;;;;;;;3.24;100.00;63260.81;5052768;28;20275;-53
2023/12/05 04:41:02;;;;;;;8.17;4.33;;;;;;;3.37;100.00;63274.94;5053080;28;20207;-54
2023/12/05 04:43:30;;;;;;;8.57;4.90;;;;;;;3.38;100.00;63276.56;5052972;28;20240;-55
2023/12/05 04:45:56;;;;;;;5.80;4.50;;;;;;;3.40;100.00;63281.25;5052605;28;20213;-60
2023/12/05 04:48:21;;;;;;;7.27;4.50;;;;;;;3.45;100.00;63283.09;5052743;28;20221;-54
2023/12/05 04:50:47;;;;;;;10.07;4.97;;;;;;;3.43;100.00;63281.47;5052604;28;20217;-53
2023/12/05 04:53:12;;;;;;;5.47;3.80;;;;;;;3.23;100.00;63260.28;5034572;28;20298;-53
2023/12/05 04:55:38;;;;;;;6.30;4.73;;;;;;;3.12;100.00;63245.28;5052525;28;20594;-52
2023/12/05 04:58:03;;;;;;;7.40;4.67;;;;;;;3.10;100.00;63243.13;5052741;28;20251;-53
2023/12/05 05:00:29;;;;;;;40.60;18.47;;;;;;;3.04;100.00;63237.16;5052578;28;20690;-51
2023/12/05 05:02:54;;;;;;;27.83;14.70;;;;;;;3.33;100.00;63270.59;5051010;28;20731;-52
2023/12/05 05:05:20;;;;;;;10.30;6.23;;;;;;;3.22;100.00;63256.72;5052199;28;20215;-52
2023/12/05 05:07:46;;;;;;;9.30;4.87;;;;;;;3.33;100.00;63268.66;5052403;28;20209;-51
2023/12/05 05:10:11;;;;;;;7.27;4.10;;;;;;;3.32;100.00;63269.50;5052138;28;20211;-54
2023/12/05 05:12:36;;;;;;;8.53;5.40;;;;;;;3.59;100.00;63298.31;5052410;28;20710;-54
2023/12/05 05:15:03;;;;;;;8.93;5.60;;;;;;;3.25;100.00;63262.44;5052481;28;20671;-54
2023/12/05 05:17:28;;;;;;;8.67;5.73;;;;;;;2.89;100.00;63222.81;5034255;28;20229;-54
2023/12/05 05:19:54;;;;;;;8.67;5.67;;;;;;;2.70;100.00;63199.69;5052373;28;20282;-53
2023/12/05 05:22:20;;;;;;;7.57;4.60;;;;;;;2.66;100.00;63197.84;5052487;28;20221;-54
2023/12/05 05:24:45;;;;;;;7.03;4.70;;;;;;;2.53;100.00;63184.81;5052465;28;20232;-52
2023/12/05 05:27:12;;;;;;;6.73;4.97;;;;;;;2.41;100.00;63171.25;5034346;28;20259;-53
2023/12/05 05:29:37;;;;;;;11.47;5.07;;;;;;;2.38;100.00;63165.50;5034030;28;20197;-54
2023/12/05 05:32:04;;;;;;;11.57;5.97;;;;;;;2.66;100.00;63198.38;5051909;28;20594;-52
2023/12/05 05:34:29;;;;;;;10.33;5.70;;;;;;;2.88;100.00;63221.72;5034030;28;20198;-55
2023/12/05 05:36:55;;;;;;;9.70;5.50;;;;;;;3.05;100.00;63238.22;5051627;28;20205;-55
2023/12/05 05:39:20;;;;;;;7.80;5.50;;;;;;;3.14;100.00;63249.97;5051955;28;20231;-53
2023/12/05 05:41:46;;;;;;;10.87;5.83;;;;;;;3.22;100.00;63256.16;5033970;28;20246;-54
2023/12/05 05:44:11;;;;;;;6.53;4.90;;;;;;;3.15;100.00;63248.56;5051645;28;20203;-54
2023/12/05 05:46:37;;;;;;;9.43;5.63;;;;;;;3.30;100.00;63267.34;5034193;28;20237;-54
2023/12/05 05:49:03;;;;;;;10.90;5.33;;;;;;;2.89;100.00;63222.81;5051990;28;20668;-54
2023/12/05 05:51:28;;;;;;;8.73;5.47;;;;;;;3.07;100.00;63242.38;5051346;28;20258;-53
2023/12/05 05:53:55;;;;;;;11.40;5.50;;;;;;;3.36;100.00;63271.91;5051880;28;20727;-52
2023/12/05 05:56:22;;;;;;;9.33;5.40;;;;;;;3.28;100.00;63265.72;5051214;28;20193;-51
2023/12/05 05:58:48;;;;;;;6.87;4.83;;;;;;;3.17;100.00;63251.25;5051721;28;20694;-53
2023/12/05 06:01:13;;;;;;;8.63;5.77;;;;;;;3.52;100.00;63288.19;5051571;28;20202;-54
2023/12/05 06:03:41;;;;;;;8.53;5.00;;;;;;;3.54;100.00;63290.91;5051225;28;20215;-54
2023/12/05 06:06:07;;;;;;;8.53;5.33;;;;;;;3.24;100.00;63258.88;5051894;28;20201;-53
2023/12/05 06:08:33;;;;;;;9.30;5.63;;;;;;;3.16;100.00;63250.19;5033204;28;20275;-53
2023/12/05 06:10:59;;;;;;;7.17;4.67;;;;;;;3.30;100.00;63267.88;5051179;28;20201;-53
2023/12/05 06:13:24;;;;;;;12.30;6.23;;;;;;;3.32;100.00;63267.03;5033697;28;20286;-54
2023/12/05 06:15:50;;;;;;;9.00;6.13;;;;;;;3.44;100.00;63282.53;5051435;28;20625;-59
2023/12/05 06:18:17;;;;;;;10.13;5.67;;;;;;;3.39;100.00;63272.66;5050040;28;20228;-55
2023/12/05 06:20:46;;;;;;;11.57;5.47;;;;;;;3.61;100.00;63298.00;5050952;28;20683;-55
2023/12/05 06:23:11;;;;;;;11.00;5.83;;;;;;;3.56;100.00;63292.53;5050288;28;20307;-54
2023/12/05 06:25:39;;;;;;;11.53;5.60;;;;;;;3.83;100.00;63324.38;5051521;28;20673;-54
2023/12/05 06:28:04;;;;;;;8.23;5.67;;;;;;;3.74;100.00;63314.59;5051061;28;20279;-55
2023/12/05 06:30:30;;;;;;;16.77;8.03;;;;;;;3.68;100.00;63306.13;5051076;28;20194;-53
2023/12/05 06:32:55;;;;;;;15.53;7.10;;;;;;;3.59;100.00;63298.31;5032337;28;20684;-54
2023/12/05 06:35:21;;;;;;;14.93;8.00;;;;;;;3.57;100.00;63294.19;5048700;28;20216;-54
2023/12/05 06:37:47;;;;;;;14.50;6.20;;;;;;;3.53;100.00;63291.78;5051040;28;20221;-53
2023/12/05 06:40:12;;;;;;;11.10;7.20;;;;;;;3.65;100.00;63305.38;5051170;28;20300;-51
2023/12/05 06:42:40;;;;;;;9.87;5.97;;;;;;;3.69;100.00;63309.16;5051062;28;20604;-52
2023/12/05 06:45:06;;;;;;;17.73;7.20;;;;;;;3.55;100.00;63291.47;5050825;28;20213;-54
2023/12/05 06:47:32;;;;;;;11.73;7.37;;;;;;;3.55;100.00;63291.47;5050751;28;20357;-54
2023/12/05 06:50:01;;;;;;;11.33;6.73;;;;;;;3.24;100.00;63261.38;5050982;28;20212;-53
2023/12/05 06:52:28;;;;;;;12.77;6.97;;;;;;;3.73;100.00;63308.53;5051116;28;20767;-53
2023/12/05 06:54:53;;;;;;;13.90;7.97;;;;;;;3.73;100.00;63313.53;5051068;28;20236;-54
2023/12/05 06:57:19;;;;;;;13.87;7.60;;;;;;;3.83;100.00;63326.88;5050848;28;20220;-53
2023/12/05 06:59:44;;;;;;;17.27;7.47;;;;;;;3.87;100.00;63328.72;5051063;28;20212;-53
2023/12/05 07:02:10;;;;;;;13.07;7.10;;;;;;;3.60;100.00;63299.38;5050557;28;20213;-55
2023/12/05 07:04:35;;;;;;;10.83;6.80;;;;;;;3.66;100.00;63305.91;5050488;28;20212;-53
2023/12/05 07:07:01;;;;;;;15.63;7.67;;;;;;;3.59;100.00;63295.81;5032639;28;20242;-54
2023/12/05 07:09:27;;;;;;;13.47;7.30;;;;;;;4.10;100.00;63353.75;5032863;28;20207;-52
2023/12/05 07:11:53;;;;;;;15.57;7.23;;;;;;;4.01;100.00;63341.47;5032542;28;20220;-53
2023/12/05 07:14:18;;;;;;;12.93;7.83;;;;;;;4.17;100.00;63361.34;5050700;28;20209;-58
2023/12/05 07:16:45;;;;;;;18.00;6.90;;;;;;;4.28;100.00;63373.84;5050497;28;20205;-55
2023/12/05 07:19:10;;;;;;;14.53;8.40;;;;;;;4.28;100.00;63370.81;5050419;28;20248;-54
2023/12/05 07:21:36;;;;;;;14.07;8.30;;;;;;;4.40;100.00;63386.38;5050369;28;20710;-53
2023/12/05 07:24:02;;;;;;;17.77;7.87;;;;;;;4.31;100.00;63373.53;5050703;28;20229;-51
2023/12/05 07:26:27;;;;;;;12.87;7.50;;;;;;;4.48;100.00;63392.03;5050298;28;20201;-58
2023/12/05 07:28:53;;;;;;;19.17;7.70;;;;;;;4.63;98.47;63411.38;5050924;28;20195;-55
2023/12/05 07:31:20;;;;;;;12.17;7.17;;;;;;;4.50;99.84;63391.72;5050830;28;20245;-55
2023/12/05 07:33:45;;;;;;;14.90;6.97;;;;;;;4.57;97.80;63402.34;5034258;28;20322;-54
2023/12/05 07:36:11;;;;;;;13.50;7.73;;;;;;;4.65;97.57;63413.00;5054190;28;20263;-56
2023/12/05 07:38:37;;;;;;;10.87;7.03;;;;;;;4.37;100.00;63385.59;5053827;28;20230;-52
2023/12/05 07:41:03;;;;;;;14.27;6.37;;;;;;;4.31;99.67;63374.06;5054109;28;20208;-53
2023/12/05 07:43:29;;;;;;;12.90;7.40;;;;;;;4.46;100.00;63389.84;5054078;28;20212;-53
2023/12/05 07:45:55;;;;;;;13.80;7.50;;;;;;;4.57;100.00;63402.34;5035986;28;20721;-53
2023/12/05 07:48:21;;;;;;;14.20;7.70;;;;;;;4.57;100.00;63404.84;5036158;28;20213;-53
2023/12/05 07:50:47;;;;;;;12.63;6.27;;;;;;;4.40;100.00;63383.88;5053816;28;20281;-52
2023/12/05 07:53:13;;;;;;;15.13;7.43;;;;;;;3.74;100.00;63315.16;5053389;28;20217;-53
2023/12/05 07:55:38;;;;;;;11.93;7.03;;;;;;;3.94;100.00;63336.34;5053436;28;20205;-59
2023/12/05 07:58:11;;;;;;;14.93;7.90;;;;;;;4.22;100.00;63367.31;5053772;28;20213;-54
2023/12/05 08:00:39;;;;;;;12.90;7.27;;;;;;;4.34;100.00;63374.31;5036789;28;20314;-53
2023/12/05 08:03:05;;;;;;;16.23;7.47;;;;;;;4.34;100.00;63379.28;5035407;28;20226;-54
2023/12/05 08:05:33;;;;;;;13.63;8.40;;;;;;;4.28;100.00;63367.78;5035399;28;20224;-54
2023/12/05 08:07:59;;;;;;;13.53;8.37;;;;;;;4.29;100.00;63371.91;5035476;28;20220;-55
2023/12/05 08:10:24;;;;;;;17.23;8.27;;;;;;;4.36;100.00;63378.97;5053445;28;20215;-58
2023/12/05 08:12:50;;;;;;;18.60;8.80;;;;;;;4.35;100.00;63380.91;5035340;28;20704;-53
2023/12/05 08:15:16;;;;;;;20.87;9.07;;;;;;;4.28;100.00;63373.84;5053797;28;20200;-53
2023/12/05 08:17:41;;;;;;;15.77;7.70;;;;;;;4.11;100.00;63352.34;5053030;28;20213;-52
2023/12/05 08:20:07;;;;;;;18.27;8.07;;;;;;;4.22;100.00;63364.31;5053303;28;20234;-55
2023/12/05 08:22:33;;;;;;;20.20;8.77;;;;;;;4.32;100.00;63377.13;5035046;28;20232;-53
2023/12/05 08:24:58;;;;;;;16.27;8.57;;;;;;;4.40;100.00;63385.81;5035076;28;20197;-55
2023/12/05 08:27:24;;;;;;;11.37;7.37;;;;;;;4.47;100.00;63390.94;5035250;28;20219;-53
2023/12/05 08:29:49;;;;;;;11.83;7.23;;;;;;;4.50;100.00;63397.25;5053321;28;20572;-56
2023/12/05 08:32:15;;;;;;;12.83;7.40;;;;;;;4.53;100.00;63395.50;5052760;28;20715;-51
2023/12/05 08:34:40;;;;;;;12.83;7.17;;;;;;;4.55;100.00;63405.16;5053229;28;20232;-52
2023/12/05 08:37:06;;;;;;;12.10;6.67;;;;;;;4.47;100.00;63391.47;5052960;28;20271;-54
2023/12/05 08:39:32;;;;;;;14.83;7.27;;;;;;;4.74;100.00;63420.84;5035291;28;20701;-53
2023/12/05 08:41:59;;;;;;;15.40;8.20;;;;;;;4.83;100.00;63427.59;5052731;28;20217;-57
2023/12/05 08:44:25;;;;;;;11.93;7.40;;;;;;;4.88;100.00;63438.03;5034035;28;20581;-55
2023/12/05 08:46:50;;;;;;;13.50;7.67;;;;;;;4.92;100.00;63440.44;5052678;28;20299;-54
2023/12/05 08:49:16;;;;;;;17.33;8.00;;;;;;;5.13;100.00;63463.28;5052846;28;20275;-55
2023/12/05 08:51:42;;;;;;;11.43;6.60;;;;;;;4.97;100.00;63445.88;5034614;28;20718;-54
2023/12/05 08:54:07;;;;;;;15.10;6.70;;;;;;;5.20;100.00;63469.81;5052887;28;20197;-55
2023/12/05 08:56:33;;;;;;;10.17;6.60;;;;;;;5.35;100.00;63486.16;5052565;28;20197;-53
2023/12/05 08:58:59;;;;;;;15.43;7.37;;;;;;;5.25;99.95;63478.31;5053024;28;20288;-53
2023/12/05 09:01:25;;;;;;;12.43;6.90;;;;;;;5.32;98.82;63480.38;5052490;28;20193;-54
2023/12/05 09:03:51;;;;;;;13.20;7.33;;;;;;;5.64;95.69;63518.25;5052282;28;20310;-55
2023/12/05 09:06:17;;;;;;;12.23;6.50;;;;;;;5.79;94.67;63534.59;5052432;28;20227;-54
2023/12/05 09:08:42;;;;;;;13.20;8.10;;;;;;;5.95;94.25;63551.50;5052724;28;20236;-54
2023/12/05 09:11:08;;;;;;;13.70;7.67;;;;;;;6.25;93.59;63586.69;5052534;28;20709;-54
2023/12/05 09:13:34;;;;;;;14.63;7.47;;;;;;;6.07;92.12;63564.03;5034641;28;20213;-54
2023/12/05 09:16:00;;;;;;;14.37;8.83;;;;;;;5.91;93.81;63549.66;5052222;28;20736;-54
2023/12/05 09:18:25;;;;;;;15.93;8.47;;;;;;;6.26;92.15;63589.75;5052769;28;20209;-52
2023/12/05 09:20:51;;;;;;;16.40;7.87;;;;;;;6.24;90.07;63585.59;5034294;28;20200;-53
2023/12/05 09:23:17;;;;;;;12.73;7.53;;;;;;;6.30;90.23;63589.09;5052412;28;20239;-53
2023/12/05 09:25:43;;;;;;;12.67;6.70;;;;;;;6.42;88.39;63602.19;5034483;28;20197;-53
2023/12/05 09:28:08;;;;;;;11.47;6.20;;;;;;;6.23;90.16;63578.97;5052400;28;20275;-54
2023/12/05 09:30:34;;;;;;;13.00;7.13;;;;;;;6.45;88.21;63607.94;5052076;28;20189;-53
2023/12/05 09:32:59;;;;;;;13.60;7.40;;;;;;;6.27;88.73;63586.38;5052063;28;20275;-53
2023/12/05 09:35:25;;;;;;;13.83;6.70;;;;;;;6.27;88.83;63588.31;5051973;28;20219;-52
2023/12/05 09:37:51;;;;;;;10.17;6.50;;;;;;;6.28;91.60;63586.91;5052217;28;20279;-52
2023/12/05 09:40:16;;;;;;;12.10;6.93;;;;;;;6.04;93.70;63558.28;5051871;28;20678;-52
2023/12/05 09:42:46;;;;;;;11.00;6.53;;;;;;;6.17;93.35;63577.97;5052136;28;20210;-54
2023/12/05 09:45:15;;;;;;;11.10;6.23;;;;;;;6.44;90.12;63604.34;5052227;28;20204;-52
2023/12/05 09:47:45;;;;;;;12.90;6.60;;;;;;;6.27;92.17;63588.88;5051722;28;20201;-54
2023/12/05 09:50:11;;;;;;;10.00;5.70;;;;;;;5.93;96.07;63554.34;5051886;28;20674;-53
2023/12/05 09:52:38;;;;;;;8.67;5.17;;;;;;;6.13;94.85;63570.56;5051932;28;20221;-52
2023/12/05 09:55:05;;;;;;;12.40;5.83;;;;;;;6.24;94.62;63583.09;5051634;28;20228;-53
2023/12/05 09:57:31;;;;;;;10.10;5.53;;;;;;;6.08;94.42;63565.66;5051560;28;20209;-53
2023/12/05 09:59:57;;;;;;;8.47;4.63;;;;;;;6.28;93.64;63584.94;5051480;28;20201;-52
2023/12/05 10:02:23;;;;;;;10.47;5.33;;;;;;;6.48;93.96;63609.28;5051274;28;20239;-51
2023/12/05 10:04:58;;;;;;;12.37;5.37;;;;;;;6.54;94.22;63613.31;5051483;28;20182;-54
2023/12/05 10:07:26;;;;;;;9.80;5.57;;;;;;;6.59;91.63;63623.75;5033330;28;20224;-51
2023/12/05 10:09:53;;;;;;;12.87;6.50;;;;;;;6.62;91.49;63623.97;5033664;28;20201;-52
2023/12/05 10:12:19;;;;;;;16.53;5.57;;;;;;;6.81;90.78;63646.66;5051310;28;20221;-52
2023/12/05 10:14:45;;;;;;;9.50;5.47;;;;;;;6.55;92.35;63616.88;5051728;28;20213;-53
2023/12/05 10:17:11;;;;;;;12.67;6.27;;;;;;;6.36;94.58;63596.16;5033991;28;20320;-52
2023/12/05 10:19:37;;;;;;;12.60;6.13;;;;;;;6.59;92.52;63621.25;5051822;28;20280;-53
2023/12/05 10:22:03;;;;;;;13.07;5.37;;;;;;;6.90;89.21;63654.50;5051171;28;20279;-53
2023/12/05 10:24:42;;;;;;;10.27;6.43;;;;;;;7.11;87.34;63677.41;5051573;28;20293;-52
2023/12/05 10:27:08;;;;;;;14.17;5.87;;;;;;;6.95;87.22;63659.94;5050948;28;20213;-54
2023/12/05 10:29:40;;;;;;;9.07;6.20;;;;;;;6.77;88.23;63640.88;5033381;28;20208;-54
2023/12/05 10:32:07;;;;;;;11.07;5.33;;;;;;;6.98;88.46;63665.72;5033126;28;20228;-53
2023/12/05 10:34:50;;;;;;;9.27;4.83;;;;;;;6.98;88.12;63665.19;5050877;28;20205;-55
2023/12/05 10:37:26;;;;;;;10.50;5.17;;;;;;;7.08;88.30;63676.09;5051182;28;20221;-54
2023/12/05 10:39:53;;;;;;;10.33;5.63;;;;;;;7.09;88.36;63677.19;5051029;28;20201;-53
2023/12/05 10:42:20;;;;;;;12.67;6.57;;;;;;;6.96;85.81;63660.50;5033181;28;20225;-52
2023/12/05 10:44:46;;;;;;;13.97;7.27;;;;;;;6.72;88.02;63637.94;5051602;28;20683;-53
2023/12/05 10:47:14;;;;;;;13.50;7.57;;;;;;;6.77;87.36;63643.38;5050900;28;20307;-52
2023/12/05 10:49:43;;;;;;;16.87;9.33;;;;;;;6.51;88.79;63615.03;5033201;28;20212;-52
2023/12/05 10:52:11;;;;;;;13.47;8.27;;;;;;;6.55;87.40;63614.38;5050961;28;20216;-53
2023/12/05 10:54:39;;;;;;;14.73;8.00;;;;;;;6.46;90.93;63607.09;5051079;28;20205;-52
2023/12/05 10:57:10;;;;;;;13.10;7.60;;;;;;;6.58;88.55;63622.66;5050812;28;20255;-53
2023/12/05 10:59:38;;;;;;;19.17;9.20;;;;;;;6.31;90.21;63590.72;5050835;28;20198;-57
2023/12/05 11:02:13;;;;;;;13.10;7.93;;;;;;;6.37;91.49;63594.78;5032508;28;20255;-53
2023/12/05 11:04:41;;;;;;;14.87;7.23;;;;;;;6.57;90.76;63621.03;5050643;28;20591;-54
2023/12/05 11:07:11;;;;;;;13.73;7.87;;;;;;;6.60;87.77;63621.78;5031352;28;20275;-55
2023/12/05 11:09:43;;;;;;;14.27;7.20;;;;;;;5.88;95.90;63544.41;5032143;28;20713;-53
2023/12/05 11:12:09;;;;;;;11.90;7.03;;;;;;;5.99;93.29;63558.38;5050476;28;20217;-54
2023/12/05 11:14:41;;;;;;;15.33;7.97;;;;;;;5.85;94.24;63543.13;5032756;28;20215;-53
2023/12/05 11:17:12;;;;;;;12.47;6.73;;;;;;;5.64;97.63;63520.22;5050435;28;20290;-55
2023/12/05 11:19:58;;;;;;;17.57;8.03;;;;;;;5.59;98.92;63514.78;5050547;28;20217;-53
2023/12/05 11:22:30;;;;;;;11.63;6.40;;;;;;;5.68;98.26;63524.56;5050593;28;20252;-54
2023/12/05 11:25:04;;;;;;;17.87;7.87;;;;;;;5.92;96.77;63548.22;5032725;28;20693;-55
2023/12/05 11:27:55;;;;;;;12.90;7.17;;;;;;;6.29;98.19;63586.06;5050580;28;20252;-53
2023/12/05 11:30:38;;;;;;;12.87;6.23;;;;;;;6.46;96.83;63609.03;5050380;28;20177;-52